sensor_id;sensor_type;location;lat;lon;timestamp;P1;durP1;ratioP1;P2;durP2;ratioP2
31594;SDS011;18200;48.726;8.892;2023-04-24T00:03:13;2.92;;;1.10;;
31594;SDS011;18200;48.726;8.892;2023-04-24T00:07:14;2.05;;;0.60;;
31594;SDS011;18200;48.726;8.892;2023-04-24T00:11:17;3.83;;;1.15;;
31594;SDS011;18200;48.726;8.892;2023-04-24T00:15:17;4.57;;;0.77;;
31594;SDS011;18200;48.726;8.892;2023-04-24T00:19:17;2.35;;;0.93;;
31594;SDS011;18200;48.726;8.892;2023-04-24T00:23:21;3.10;;;0.80;;
31594;SDS011;18200;48.726;8.892;2023-04-24T00:27:21;3.97;;;1.00;;
31594;SDS011;18200;48.726;8.892;2023-04-24T00:31:22;2.03;;;0.90;;
31594;SDS011;18200;48.726;8.892;2023-04-24T00:35:22;5.10;;;0.90;;
31594;SDS011;18200;48.726;8.892;2023-04-24T00:39:23;1.33;;;0.60;;
31594;SDS011;18200;48.726;8.892;2023-04-24T00:43:23;2.35;;;1.00;;
31594;SDS011;18200;48.726;8.892;2023-04-24T00:47:24;2.97;;;0.77;;
31594;SDS011;18200;48.726;8.892;2023-04-24T00:51:25;4.18;;;0.85;;
31594;SDS011;18200;48.726;8.892;2023-04-24T00:55:25;2.42;;;0.90;;
31594;SDS011;18200;48.726;8.892;2023-04-24T00:59:27;2.20;;;0.77;;
31594;SDS011;18200;48.726;8.892;2023-04-24T01:03:29;6.43;;;0.90;;
31594;SDS011;18200;48.726;8.892;2023-04-24T01:07:33;2.17;;;1.00;;
31594;SDS011;18200;48.726;8.892;2023-04-24T01:11:35;3.72;;;1.00;;
31594;SDS011;18200;48.726;8.892;2023-04-24T01:15:36;2.72;;;1.02;;
31594;SDS011;18200;48.726;8.892;2023-04-24T01:19:36;1.73;;;0.88;;
31594;SDS011;18200;48.726;8.892;2023-04-24T01:23:37;1.48;;;0.80;;
31594;SDS011;18200;48.726;8.892;2023-04-24T01:27:38;2.80;;;1.00;;
31594;SDS011;18200;48.726;8.892;2023-04-24T01:31:39;3.17;;;1.23;;
31594;SDS011;18200;48.726;8.892;2023-04-24T01:35:40;2.72;;;0.98;;
31594;SDS011;18200;48.726;8.892;2023-04-24T01:39:40;1.50;;;0.90;;
31594;SDS011;18200;48.726;8.892;2023-04-24T01:43:41;2.28;;;1.08;;
31594;SDS011;18200;48.726;8.892;2023-04-24T01:47:41;3.50;;;0.90;;
31594;SDS011;18200;48.726;8.892;2023-04-24T01:51:42;1.45;;;0.75;;
31594;SDS011;18200;48.726;8.892;2023-04-24T01:55:42;1.27;;;1.00;;
31594;SDS011;18200;48.726;8.892;2023-04-24T01:59:42;2.65;;;0.80;;
31594;SDS011;18200;48.726;8.892;2023-04-24T02:03:43;1.33;;;0.82;;
31594;SDS011;18200;48.726;8.892;2023-04-24T02:07:43;3.05;;;1.00;;
31594;SDS011;18200;48.726;8.892;2023-04-24T02:11:44;4.35;;;1.08;;
31594;SDS011;18200;48.726;8.892;2023-04-24T02:15:44;2.53;;;0.93;;
31594;SDS011;18200;48.726;8.892;2023-04-24T02:19:44;1.63;;;0.80;;
31594;SDS011;18200;48.726;8.892;2023-04-24T02:23:46;2.58;;;0.80;;
31594;SDS011;18200;48.726;8.892;2023-04-24T02:27:46;1.98;;;0.98;;
31594;SDS011;18200;48.726;8.892;2023-04-24T02:31:47;2.78;;;0.95;;
31594;SDS011;18200;48.726;8.892;2023-04-24T02:35:48;2.72;;;0.90;;
31594;SDS011;18200;48.726;8.892;2023-04-24T02:39:49;1.90;;;0.90;;
31594;SDS011;18200;48.726;8.892;2023-04-24T02:43:49;3.08;;;1.00;;
31594;SDS011;18200;48.726;8.892;2023-04-24T02:47:49;1.42;;;1.00;;
31594;SDS011;18200;48.726;8.892;2023-04-24T02:51:50;3.50;;;1.25;;
31594;SDS011;18200;48.726;8.892;2023-04-24T02:55:50;1.10;;;0.70;;
31594;SDS011;18200;48.726;8.892;2023-04-24T02:59:50;1.48;;;0.70;;
31594;SDS011;18200;48.726;8.892;2023-04-24T03:03:51;4.90;;;1.30;;
31594;SDS011;18200;48.726;8.892;2023-04-24T03:07:51;2.67;;;1.65;;
31594;SDS011;18200;48.726;8.892;2023-04-24T03:11:52;3.90;;;1.10;;
31594;SDS011;18200;48.726;8.892;2023-04-24T03:15:52;3.08;;;1.30;;
31594;SDS011;18200;48.726;8.892;2023-04-24T03:19:54;2.22;;;1.17;;
31594;SDS011;18200;48.726;8.892;2023-04-24T03:23:55;4.63;;;1.13;;
31594;SDS011;18200;48.726;8.892;2023-04-24T03:27:55;6.00;;;1.52;;
31594;SDS011;18200;48.726;8.892;2023-04-24T03:32:22;3.65;;;1.10;;
31594;SDS011;18200;48.726;8.892;2023-04-24T03:36:22;4.00;;;3.10;;
31594;SDS011;18200;48.726;8.892;2023-04-24T03:40:23;1.70;;;1.10;;
31594;SDS011;18200;48.726;8.892;2023-04-24T03:44:24;5.88;;;1.30;;
31594;SDS011;18200;48.726;8.892;2023-04-24T03:48:24;4.55;;;1.17;;
31594;SDS011;18200;48.726;8.892;2023-04-24T03:52:25;5.93;;;1.17;;
31594;SDS011;18200;48.726;8.892;2023-04-24T03:56:26;7.53;;;1.30;;
31594;SDS011;18200;48.726;8.892;2023-04-24T04:00:26;3.38;;;1.13;;
31594;SDS011;18200;48.726;8.892;2023-04-24T04:04:44;2.90;;;1.15;;
31594;SDS011;18200;48.726;8.892;2023-04-24T04:08:45;5.13;;;1.17;;
31594;SDS011;18200;48.726;8.892;2023-04-24T04:12:45;6.28;;;1.38;;
31594;SDS011;18200;48.726;8.892;2023-04-24T04:16:45;15.23;;;2.20;;
31594;SDS011;18200;48.726;8.892;2023-04-24T04:20:46;1.00;;;0.90;;
31594;SDS011;18200;48.726;8.892;2023-04-24T04:24:48;2.58;;;1.30;;
31594;SDS011;18200;48.726;8.892;2023-04-24T04:28:52;3.10;;;1.27;;
31594;SDS011;18200;48.726;8.892;2023-04-24T04:32:54;4.18;;;1.17;;
31594;SDS011;18200;48.726;8.892;2023-04-24T04:36:55;2.80;;;1.23;;
31594;SDS011;18200;48.726;8.892;2023-04-24T04:41:06;2.40;;;1.40;;
31594;SDS011;18200;48.726;8.892;2023-04-24T04:45:07;2.47;;;1.30;;
31594;SDS011;18200;48.726;8.892;2023-04-24T04:49:24;2.08;;;1.20;;
31594;SDS011;18200;48.726;8.892;2023-04-24T04:53:24;2.08;;;1.38;;
31594;SDS011;18200;48.726;8.892;2023-04-24T04:57:26;2.53;;;1.20;;
31594;SDS011;18200;48.726;8.892;2023-04-24T05:01:26;1.25;;;1.15;;
31594;SDS011;18200;48.726;8.892;2023-04-24T05:05:29;3.13;;;1.42;;
31594;SDS011;18200;48.726;8.892;2023-04-24T05:09:30;2.13;;;1.40;;
31594;SDS011;18200;48.726;8.892;2023-04-24T05:13:35;2.35;;;1.30;;
31594;SDS011;18200;48.726;8.892;2023-04-24T05:17:37;2.00;;;1.40;;
31594;SDS011;18200;48.726;8.892;2023-04-24T05:21:41;2.72;;;1.38;;
31594;SDS011;18200;48.726;8.892;2023-04-24T05:25:42;2.95;;;1.70;;
31594;SDS011;18200;48.726;8.892;2023-04-24T05:29:45;5.18;;;1.80;;
31594;SDS011;18200;48.726;8.892;2023-04-24T05:33:47;2.22;;;1.42;;
31594;SDS011;18200;48.726;8.892;2023-04-24T05:37:47;1.95;;;1.70;;
31594;SDS011;18200;48.726;8.892;2023-04-24T05:41:48;3.75;;;1.98;;
31594;SDS011;18200;48.726;8.892;2023-04-24T05:45:49;2.25;;;1.60;;
31594;SDS011;18200;48.726;8.892;2023-04-24T05:49:49;5.00;;;4.22;;
31594;SDS011;18200;48.726;8.892;2023-04-24T05:53:51;3.70;;;2.47;;
31594;SDS011;18200;48.726;8.892;2023-04-24T05:57:51;2.35;;;2.10;;
31594;SDS011;18200;48.726;8.892;2023-04-24T06:01:52;7.75;;;4.93;;
31594;SDS011;18200;48.726;8.892;2023-04-24T06:05:54;9.18;;;4.93;;
31594;SDS011;18200;48.726;8.892;2023-04-24T06:09:56;5.97;;;3.95;;
31594;SDS011;18200;48.726;8.892;2023-04-24T06:13:57;5.53;;;3.47;;
31594;SDS011;18200;48.726;8.892;2023-04-24T06:18:12;3.10;;;2.60;;
31594;SDS011;18200;48.726;8.892;2023-04-24T06:22:14;4.63;;;2.33;;
31594;SDS011;18200;48.726;8.892;2023-04-24T06:26:15;4.00;;;2.28;;
31594;SDS011;18200;48.726;8.892;2023-04-24T06:30:16;3.58;;;2.40;;
31594;SDS011;18200;48.726;8.892;2023-04-24T06:34:16;5.18;;;2.47;;
31594;SDS011;18200;48.726;8.892;2023-04-24T06:38:16;5.50;;;2.17;;
31594;SDS011;18200;48.726;8.892;2023-04-24T06:42:17;3.17;;;2.15;;
31594;SDS011;18200;48.726;8.892;2023-04-24T06:46:18;3.30;;;2.20;;
31594;SDS011;18200;48.726;8.892;2023-04-24T06:50:18;3.83;;;2.00;;
31594;SDS011;18200;48.726;8.892;2023-04-24T06:54:19;2.95;;;1.90;;
31594;SDS011;18200;48.726;8.892;2023-04-24T06:58:19;3.10;;;1.83;;
31594;SDS011;18200;48.726;8.892;2023-04-24T07:02:20;2.70;;;1.92;;
31594;SDS011;18200;48.726;8.892;2023-04-24T07:06:20;3.28;;;2.10;;
31594;SDS011;18200;48.726;8.892;2023-04-24T07:10:22;2.97;;;1.90;;
31594;SDS011;18200;48.726;8.892;2023-04-24T07:14:29;3.45;;;1.98;;
31594;SDS011;18200;48.726;8.892;2023-04-24T07:18:30;5.38;;;1.92;;
31594;SDS011;18200;48.726;8.892;2023-04-24T07:22:38;4.32;;;2.03;;
31594;SDS011;18200;48.726;8.892;2023-04-24T07:26:39;3.22;;;1.73;;
31594;SDS011;18200;48.726;8.892;2023-04-24T07:30:40;3.17;;;1.90;;
31594;SDS011;18200;48.726;8.892;2023-04-24T07:34:41;2.97;;;1.75;;
31594;SDS011;18200;48.726;8.892;2023-04-24T07:38:42;5.07;;;1.80;;
31594;SDS011;18200;48.726;8.892;2023-04-24T07:42:42;4.55;;;1.83;;
31594;SDS011;18200;48.726;8.892;2023-04-24T07:46:43;5.60;;;2.20;;
31594;SDS011;18200;48.726;8.892;2023-04-24T07:50:47;5.22;;;2.00;;
31594;SDS011;18200;48.726;8.892;2023-04-24T07:54:47;1.80;;;1.58;;
31594;SDS011;18200;48.726;8.892;2023-04-24T07:58:48;3.50;;;1.95;;
31594;SDS011;18200;48.726;8.892;2023-04-24T08:02:54;3.33;;;1.77;;
31594;SDS011;18200;48.726;8.892;2023-04-24T08:06:55;3.72;;;1.70;;
31594;SDS011;18200;48.726;8.892;2023-04-24T08:10:55;4.25;;;1.80;;
31594;SDS011;18200;48.726;8.892;2023-04-24T08:14:59;4.32;;;2.38;;
31594;SDS011;18200;48.726;8.892;2023-04-24T08:19:09;4.45;;;1.50;;
31594;SDS011;18200;48.726;8.892;2023-04-24T08:23:13;4.50;;;1.60;;
31594;SDS011;18200;48.726;8.892;2023-04-24T08:27:13;2.22;;;1.60;;
31594;SDS011;18200;48.726;8.892;2023-04-24T08:31:14;3.33;;;2.10;;
31594;SDS011;18200;48.726;8.892;2023-04-24T08:35:14;4.05;;;1.77;;
31594;SDS011;18200;48.726;8.892;2023-04-24T08:39:16;6.50;;;1.67;;
31594;SDS011;18200;48.726;8.892;2023-04-24T08:43:23;4.80;;;1.73;;
31594;SDS011;18200;48.726;8.892;2023-04-24T08:47:24;3.13;;;1.77;;
31594;SDS011;18200;48.726;8.892;2023-04-24T08:51:27;3.55;;;2.17;;
31594;SDS011;18200;48.726;8.892;2023-04-24T08:55:35;4.22;;;2.28;;
31594;SDS011;18200;48.726;8.892;2023-04-24T08:59:37;4.35;;;2.08;;
31594;SDS011;18200;48.726;8.892;2023-04-24T09:03:38;4.78;;;1.80;;
31594;SDS011;18200;48.726;8.892;2023-04-24T09:07:39;3.53;;;1.70;;
31594;SDS011;18200;48.726;8.892;2023-04-24T09:11:41;3.90;;;1.80;;
31594;SDS011;18200;48.726;8.892;2023-04-24T09:15:42;2.65;;;1.45;;
31594;SDS011;18200;48.726;8.892;2023-04-24T09:19:57;3.22;;;1.48;;
31594;SDS011;18200;48.726;8.892;2023-04-24T09:23:58;4.95;;;2.03;;
31594;SDS011;18200;48.726;8.892;2023-04-24T09:28:04;2.22;;;1.45;;
31594;SDS011;18200;48.726;8.892;2023-04-24T09:32:22;2.22;;;1.38;;
31594;SDS011;18200;48.726;8.892;2023-04-24T09:36:35;2.03;;;1.23;;
31594;SDS011;18200;48.726;8.892;2023-04-24T09:40:37;2.17;;;1.30;;
31594;SDS011;18200;48.726;8.892;2023-04-24T09:44:40;3.83;;;1.63;;
31594;SDS011;18200;48.726;8.892;2023-04-24T09:48:41;2.83;;;1.95;;
31594;SDS011;18200;48.726;8.892;2023-04-24T09:52:45;2.85;;;1.30;;
31594;SDS011;18200;48.726;8.892;2023-04-24T09:56:48;3.30;;;1.50;;
31594;SDS011;18200;48.726;8.892;2023-04-24T10:00:49;2.25;;;1.50;;
31594;SDS011;18200;48.726;8.892;2023-04-24T10:04:57;2.85;;;1.40;;
31594;SDS011;18200;48.726;8.892;2023-04-24T10:08:59;8.32;;;2.35;;
31594;SDS011;18200;48.726;8.892;2023-04-24T10:13:00;3.80;;;1.63;;
31594;SDS011;18200;48.726;8.892;2023-04-24T10:17:01;2.08;;;1.48;;
31594;SDS011;18200;48.726;8.892;2023-04-24T10:21:03;2.63;;;1.40;;
31594;SDS011;18200;48.726;8.892;2023-04-24T10:25:03;2.78;;;1.45;;
31594;SDS011;18200;48.726;8.892;2023-04-24T10:29:05;2.08;;;1.33;;
31594;SDS011;18200;48.726;8.892;2023-04-24T10:33:09;2.63;;;1.40;;
31594;SDS011;18200;48.726;8.892;2023-04-24T10:37:10;2.97;;;1.20;;
31594;SDS011;18200;48.726;8.892;2023-04-24T10:41:11;2.15;;;1.30;;
31594;SDS011;18200;48.726;8.892;2023-04-24T10:45:24;5.22;;;1.50;;
31594;SDS011;18200;48.726;8.892;2023-04-24T10:49:28;2.72;;;1.30;;
31594;SDS011;18200;48.726;8.892;2023-04-24T10:53:36;3.08;;;1.30;;
31594;SDS011;18200;48.726;8.892;2023-04-24T10:57:36;3.67;;;2.00;;
31594;SDS011;18200;48.726;8.892;2023-04-24T11:01:40;3.15;;;1.20;;
31594;SDS011;18200;48.726;8.892;2023-04-24T11:05:55;3.58;;;1.67;;
31594;SDS011;18200;48.726;8.892;2023-04-24T11:10:03;2.35;;;1.60;;
31594;SDS011;18200;48.726;8.892;2023-04-24T11:14:16;1.77;;;1.45;;
31594;SDS011;18200;48.726;8.892;2023-04-24T11:18:17;3.60;;;1.65;;
31594;SDS011;18200;48.726;8.892;2023-04-24T11:22:17;3.60;;;1.70;;
31594;SDS011;18200;48.726;8.892;2023-04-24T11:26:21;2.00;;;1.50;;
31594;SDS011;18200;48.726;8.892;2023-04-24T11:38:29;4.53;;;1.90;;
31594;SDS011;18200;48.726;8.892;2023-04-24T11:42:34;2.50;;;1.88;;
31594;SDS011;18200;48.726;8.892;2023-04-24T11:46:35;2.38;;;1.60;;
31594;SDS011;18200;48.726;8.892;2023-04-24T11:50:37;2.15;;;1.38;;
31594;SDS011;18200;48.726;8.892;2023-04-24T11:54:47;4.13;;;1.83;;
31594;SDS011;18200;48.726;8.892;2023-04-24T11:58:51;4.53;;;1.90;;
31594;SDS011;18200;48.726;8.892;2023-04-24T12:03:03;3.57;;;1.93;;
31594;SDS011;18200;48.726;8.892;2023-04-24T12:07:05;2.30;;;1.70;;
31594;SDS011;18200;48.726;8.892;2023-04-24T12:11:06;3.53;;;1.63;;
31594;SDS011;18200;48.726;8.892;2023-04-24T12:15:07;3.08;;;1.70;;
31594;SDS011;18200;48.726;8.892;2023-04-24T12:19:09;2.80;;;1.65;;
31594;SDS011;18200;48.726;8.892;2023-04-24T12:23:09;8.35;;;3.83;;
31594;SDS011;18200;48.726;8.892;2023-04-24T12:27:19;2.17;;;1.80;;
31594;SDS011;18200;48.726;8.892;2023-04-24T12:31:20;7.35;;;1.70;;
31594;SDS011;18200;48.726;8.892;2023-04-24T12:35:22;2.67;;;1.45;;
31594;SDS011;18200;48.726;8.892;2023-04-24T12:39:23;2.55;;;1.30;;
31594;SDS011;18200;48.726;8.892;2023-04-24T12:43:26;3.53;;;1.73;;
31594;SDS011;18200;48.726;8.892;2023-04-24T12:47:27;3.90;;;1.75;;
31594;SDS011;18200;48.726;8.892;2023-04-24T12:51:28;3.30;;;2.08;;
31594;SDS011;18200;48.726;8.892;2023-04-24T12:55:28;4.45;;;2.00;;
31594;SDS011;18200;48.726;8.892;2023-04-24T12:59:29;2.67;;;1.95;;
31594;SDS011;18200;48.726;8.892;2023-04-24T13:03:29;2.42;;;1.85;;
31594;SDS011;18200;48.726;8.892;2023-04-24T13:07:30;4.35;;;2.00;;
31594;SDS011;18200;48.726;8.892;2023-04-24T13:11:30;3.33;;;2.30;;
31594;SDS011;18200;48.726;8.892;2023-04-24T13:15:31;3.08;;;1.90;;
31594;SDS011;18200;48.726;8.892;2023-04-24T13:19:41;3.75;;;2.00;;
31594;SDS011;18200;48.726;8.892;2023-04-24T13:23:42;6.55;;;2.33;;
31594;SDS011;18200;48.726;8.892;2023-04-24T13:27:43;1.50;;;1.40;;
31594;SDS011;18200;48.726;8.892;2023-04-24T13:31:43;3.22;;;2.40;;
31594;SDS011;18200;48.726;8.892;2023-04-24T13:35:44;3.20;;;1.85;;
31594;SDS011;18200;48.726;8.892;2023-04-24T13:39:44;2.70;;;1.77;;
31594;SDS011;18200;48.726;8.892;2023-04-24T13:43:45;4.07;;;2.00;;
31594;SDS011;18200;48.726;8.892;2023-04-24T13:47:47;5.93;;;3.00;;
31594;SDS011;18200;48.726;8.892;2023-04-24T13:51:47;4.68;;;2.70;;
31594;SDS011;18200;48.726;8.892;2023-04-24T13:55:48;4.88;;;2.17;;
31594;SDS011;18200;48.726;8.892;2023-04-24T13:59:52;5.40;;;2.40;;
31594;SDS011;18200;48.726;8.892;2023-04-24T14:03:53;4.63;;;2.38;;
31594;SDS011;18200;48.726;8.892;2023-04-24T14:07:55;5.07;;;2.92;;
31594;SDS011;18200;48.726;8.892;2023-04-24T14:11:56;6.15;;;2.17;;
31594;SDS011;18200;48.726;8.892;2023-04-24T14:15:56;7.47;;;2.88;;
31594;SDS011;18200;48.726;8.892;2023-04-24T14:19:56;2.85;;;2.08;;
31594;SDS011;18200;48.726;8.892;2023-04-24T14:23:59;4.07;;;2.30;;
31594;SDS011;18200;48.726;8.892;2023-04-24T14:28:00;4.78;;;2.47;;
31594;SDS011;18200;48.726;8.892;2023-04-24T14:32:00;6.38;;;2.90;;
31594;SDS011;18200;48.726;8.892;2023-04-24T14:36:01;5.55;;;2.63;;
31594;SDS011;18200;48.726;8.892;2023-04-24T14:40:05;3.60;;;3.10;;
31594;SDS011;18200;48.726;8.892;2023-04-24T14:44:08;4.93;;;2.47;;
31594;SDS011;18200;48.726;8.892;2023-04-24T14:48:09;5.20;;;2.50;;
31594;SDS011;18200;48.726;8.892;2023-04-24T14:52:11;4.72;;;2.08;;
31594;SDS011;18200;48.726;8.892;2023-04-24T14:56:12;4.88;;;2.65;;
31594;SDS011;18200;48.726;8.892;2023-04-24T15:00:15;4.82;;;3.05;;
31594;SDS011;18200;48.726;8.892;2023-04-24T15:04:17;5.47;;;2.70;;
31594;SDS011;18200;48.726;8.892;2023-04-24T15:08:17;2.28;;;2.00;;
31594;SDS011;18200;48.726;8.892;2023-04-24T15:12:18;4.07;;;2.58;;
31594;SDS011;18200;48.726;8.892;2023-04-24T15:16:19;2.00;;;1.50;;
31594;SDS011;18200;48.726;8.892;2023-04-24T15:20:20;4.47;;;2.25;;
31594;SDS011;18200;48.726;8.892;2023-04-24T15:24:20;3.10;;;1.90;;
31594;SDS011;18200;48.726;8.892;2023-04-24T15:28:21;4.57;;;2.22;;
31594;SDS011;18200;48.726;8.892;2023-04-24T15:32:21;3.00;;;2.00;;
31594;SDS011;18200;48.726;8.892;2023-04-24T15:36:22;2.67;;;1.92;;
31594;SDS011;18200;48.726;8.892;2023-04-24T15:40:22;2.53;;;2.10;;
31594;SDS011;18200;48.726;8.892;2023-04-24T15:44:23;2.78;;;1.98;;
31594;SDS011;18200;48.726;8.892;2023-04-24T15:48:23;10.07;;;4.32;;
31594;SDS011;18200;48.726;8.892;2023-04-24T15:52:24;3.80;;;2.20;;
31594;SDS011;18200;48.726;8.892;2023-04-24T15:56:24;11.70;;;6.30;;
31594;SDS011;18200;48.726;8.892;2023-04-24T16:00:24;3.15;;;1.75;;
31594;SDS011;18200;48.726;8.892;2023-04-24T16:04:27;4.93;;;2.25;;
31594;SDS011;18200;48.726;8.892;2023-04-24T16:08:28;3.60;;;1.98;;
31594;SDS011;18200;48.726;8.892;2023-04-24T16:12:28;5.22;;;2.22;;
31594;SDS011;18200;48.726;8.892;2023-04-24T16:16:29;3.47;;;2.20;;
31594;SDS011;18200;48.726;8.892;2023-04-24T16:20:29;3.92;;;1.92;;
31594;SDS011;18200;48.726;8.892;2023-04-24T16:24:30;4.63;;;1.92;;
31594;SDS011;18200;48.726;8.892;2023-04-24T16:28:30;6.85;;;1.80;;
31594;SDS011;18200;48.726;8.892;2023-04-24T16:32:31;2.53;;;1.73;;
31594;SDS011;18200;48.726;8.892;2023-04-24T16:36:31;2.83;;;1.80;;
31594;SDS011;18200;48.726;8.892;2023-04-24T16:40:32;2.92;;;1.50;;
31594;SDS011;18200;48.726;8.892;2023-04-24T16:44:32;1.67;;;1.50;;
31594;SDS011;18200;48.726;8.892;2023-04-24T16:48:33;2.30;;;1.70;;
31594;SDS011;18200;48.726;8.892;2023-04-24T16:52:34;1.80;;;1.35;;
31594;SDS011;18200;48.726;8.892;2023-04-24T16:56:34;2.30;;;1.50;;
31594;SDS011;18200;48.726;8.892;2023-04-24T17:00:35;6.78;;;1.83;;
31594;SDS011;18200;48.726;8.892;2023-04-24T17:04:36;2.90;;;1.83;;
31594;SDS011;18200;48.726;8.892;2023-04-24T17:08:37;3.80;;;2.00;;
31594;SDS011;18200;48.726;8.892;2023-04-24T17:12:37;3.35;;;2.10;;
31594;SDS011;18200;48.726;8.892;2023-04-24T17:16:37;3.35;;;2.00;;
31594;SDS011;18200;48.726;8.892;2023-04-24T17:20:39;2.83;;;2.05;;
31594;SDS011;18200;48.726;8.892;2023-04-24T17:24:39;3.90;;;2.60;;
31594;SDS011;18200;48.726;8.892;2023-04-24T17:28:40;2.40;;;1.98;;
31594;SDS011;18200;48.726;8.892;2023-04-24T17:32:40;4.25;;;2.05;;
31594;SDS011;18200;48.726;8.892;2023-04-24T17:36:41;4.70;;;2.05;;
31594;SDS011;18200;48.726;8.892;2023-04-24T17:40:41;5.18;;;2.15;;
31594;SDS011;18200;48.726;8.892;2023-04-24T17:44:41;9.70;;;4.60;;
31594;SDS011;18200;48.726;8.892;2023-04-24T17:48:42;4.05;;;2.40;;
31594;SDS011;18200;48.726;8.892;2023-04-24T17:52:42;5.22;;;2.17;;
31594;SDS011;18200;48.726;8.892;2023-04-24T17:56:42;5.00;;;2.50;;
31594;SDS011;18200;48.726;8.892;2023-04-24T18:00:43;5.90;;;3.22;;
31594;SDS011;18200;48.726;8.892;2023-04-24T18:04:44;3.70;;;2.30;;
31594;SDS011;18200;48.726;8.892;2023-04-24T18:08:46;9.38;;;4.78;;
31594;SDS011;18200;48.726;8.892;2023-04-24T18:12:47;11.57;;;6.60;;
31594;SDS011;18200;48.726;8.892;2023-04-24T18:16:48;13.27;;;6.55;;
31594;SDS011;18200;48.726;8.892;2023-04-24T18:20:50;11.55;;;6.68;;
31594;SDS011;18200;48.726;8.892;2023-04-24T18:24:52;4.05;;;2.63;;
31594;SDS011;18200;48.726;8.892;2023-04-24T18:28:53;7.07;;;3.75;;
31594;SDS011;18200;48.726;8.892;2023-04-24T18:32:54;11.75;;;5.55;;
31594;SDS011;18200;48.726;8.892;2023-04-24T18:36:54;9.40;;;5.25;;
31594;SDS011;18200;48.726;8.892;2023-04-24T18:40:54;4.03;;;2.55;;
31594;SDS011;18200;48.726;8.892;2023-04-24T18:44:55;3.58;;;2.30;;
31594;SDS011;18200;48.726;8.892;2023-04-24T18:49:00;4.40;;;2.92;;
31594;SDS011;18200;48.726;8.892;2023-04-24T18:53:00;5.20;;;3.38;;
31594;SDS011;18200;48.726;8.892;2023-04-24T18:57:02;5.65;;;2.95;;
31594;SDS011;18200;48.726;8.892;2023-04-24T19:01:02;4.72;;;2.90;;
31594;SDS011;18200;48.726;8.892;2023-04-24T19:05:02;15.18;;;3.22;;
31594;SDS011;18200;48.726;8.892;2023-04-24T19:09:03;3.95;;;2.25;;
31594;SDS011;18200;48.726;8.892;2023-04-24T19:13:03;5.45;;;2.42;;
31594;SDS011;18200;48.726;8.892;2023-04-24T19:17:04;4.35;;;2.70;;
31594;SDS011;18200;48.726;8.892;2023-04-24T19:21:05;3.63;;;2.67;;
31594;SDS011;18200;48.726;8.892;2023-04-24T19:25:06;4.70;;;2.50;;
31594;SDS011;18200;48.726;8.892;2023-04-24T19:29:06;4.05;;;2.30;;
31594;SDS011;18200;48.726;8.892;2023-04-24T19:33:07;3.05;;;2.40;;
31594;SDS011;18200;48.726;8.892;2023-04-24T19:37:07;4.45;;;2.83;;
31594;SDS011;18200;48.726;8.892;2023-04-24T19:41:08;5.93;;;2.50;;
31594;SDS011;18200;48.726;8.892;2023-04-24T19:45:09;6.10;;;2.67;;
31594;SDS011;18200;48.726;8.892;2023-04-24T19:49:10;4.57;;;3.13;;
31594;SDS011;18200;48.726;8.892;2023-04-24T19:53:12;3.90;;;2.42;;
31594;SDS011;18200;48.726;8.892;2023-04-24T19:57:13;7.60;;;3.17;;
31594;SDS011;18200;48.726;8.892;2023-04-24T20:01:13;5.13;;;2.80;;
31594;SDS011;18200;48.726;8.892;2023-04-24T20:05:14;5.82;;;3.25;;
31594;SDS011;18200;48.726;8.892;2023-04-24T20:09:14;5.55;;;3.40;;
31594;SDS011;18200;48.726;8.892;2023-04-24T20:13:15;7.38;;;3.35;;
31594;SDS011;18200;48.726;8.892;2023-04-24T20:17:16;4.63;;;3.10;;
31594;SDS011;18200;48.726;8.892;2023-04-24T20:21:17;5.43;;;3.03;;
31594;SDS011;18200;48.726;8.892;2023-04-24T20:25:17;3.75;;;2.45;;
31594;SDS011;18200;48.726;8.892;2023-04-24T20:29:17;3.75;;;2.75;;
31594;SDS011;18200;48.726;8.892;2023-04-24T20:33:18;3.00;;;2.20;;
31594;SDS011;18200;48.726;8.892;2023-04-24T20:37:19;5.88;;;2.40;;
31594;SDS011;18200;48.726;8.892;2023-04-24T20:41:19;3.78;;;2.40;;
31594;SDS011;18200;48.726;8.892;2023-04-24T20:45:20;3.45;;;2.40;;
31594;SDS011;18200;48.726;8.892;2023-04-24T20:49:21;3.88;;;2.63;;
31594;SDS011;18200;48.726;8.892;2023-04-24T20:53:21;3.85;;;2.55;;
31594;SDS011;18200;48.726;8.892;2023-04-24T20:57:22;3.45;;;2.92;;
31594;SDS011;18200;48.726;8.892;2023-04-24T21:01:22;4.78;;;2.55;;
31594;SDS011;18200;48.726;8.892;2023-04-24T21:05:23;4.40;;;2.70;;
31594;SDS011;18200;48.726;8.892;2023-04-24T21:09:23;4.35;;;2.85;;
31594;SDS011;18200;48.726;8.892;2023-04-24T21:13:23;4.13;;;3.30;;
31594;SDS011;18200;48.726;8.892;2023-04-24T21:17:24;5.40;;;3.35;;
31594;SDS011;18200;48.726;8.892;2023-04-24T21:21:24;4.22;;;2.58;;
31594;SDS011;18200;48.726;8.892;2023-04-24T21:25:25;3.95;;;2.80;;
31594;SDS011;18200;48.726;8.892;2023-04-24T21:29:25;3.90;;;2.85;;
31594;SDS011;18200;48.726;8.892;2023-04-24T21:33:26;3.97;;;3.00;;
31594;SDS011;18200;48.726;8.892;2023-04-24T21:37:27;5.32;;;2.92;;
31594;SDS011;18200;48.726;8.892;2023-04-24T21:41:27;6.35;;;3.45;;
31594;SDS011;18200;48.726;8.892;2023-04-24T21:45:28;4.30;;;3.20;;
31594;SDS011;18200;48.726;8.892;2023-04-24T21:49:28;4.50;;;3.03;;
31594;SDS011;18200;48.726;8.892;2023-04-24T21:53:29;8.25;;;3.72;;
31594;SDS011;18200;48.726;8.892;2023-04-24T21:57:29;5.05;;;3.13;;
31594;SDS011;18200;48.726;8.892;2023-04-24T22:01:29;6.05;;;3.30;;
31594;SDS011;18200;48.726;8.892;2023-04-24T22:05:32;7.30;;;2.80;;
31594;SDS011;18200;48.726;8.892;2023-04-24T22:09:32;5.18;;;3.38;;
31594;SDS011;18200;48.726;8.892;2023-04-24T22:13:32;6.22;;;3.78;;
31594;SDS011;18200;48.726;8.892;2023-04-24T22:17:34;4.05;;;3.03;;
31594;SDS011;18200;48.726;8.892;2023-04-24T22:21:34;5.70;;;3.30;;
31594;SDS011;18200;48.726;8.892;2023-04-24T22:25:35;5.28;;;3.20;;
31594;SDS011;18200;48.726;8.892;2023-04-24T22:29:35;8.48;;;3.35;;
31594;SDS011;18200;48.726;8.892;2023-04-24T22:33:35;3.67;;;3.00;;
31594;SDS011;18200;48.726;8.892;2023-04-24T22:37:36;4.03;;;2.90;;
31594;SDS011;18200;48.726;8.892;2023-04-24T22:41:36;5.22;;;3.47;;
31594;SDS011;18200;48.726;8.892;2023-04-24T22:45:37;5.28;;;3.25;;
31594;SDS011;18200;48.726;8.892;2023-04-24T22:49:37;6.28;;;3.10;;
31594;SDS011;18200;48.726;8.892;2023-04-24T22:53:38;4.15;;;2.92;;
31594;SDS011;18200;48.726;8.892;2023-04-24T22:57:39;6.13;;;2.83;;
31594;SDS011;18200;48.726;8.892;2023-04-24T23:01:40;4.60;;;2.83;;
31594;SDS011;18200;48.726;8.892;2023-04-24T23:05:40;6.95;;;3.20;;
31594;SDS011;18200;48.726;8.892;2023-04-24T23:09:41;4.55;;;2.90;;
31594;SDS011;18200;48.726;8.892;2023-04-24T23:13:41;4.60;;;2.15;;
31594;SDS011;18200;48.726;8.892;2023-04-24T23:17:42;5.28;;;2.25;;
31594;SDS011;18200;48.726;8.892;2023-04-24T23:21:42;3.92;;;2.45;;
31594;SDS011;18200;48.726;8.892;2023-04-24T23:25:43;2.97;;;1.88;;
31594;SDS011;18200;48.726;8.892;2023-04-24T23:29:43;5.63;;;1.70;;
31594;SDS011;18200;48.726;8.892;2023-04-24T23:33:43;5.10;;;1.70;;
31594;SDS011;18200;48.726;8.892;2023-04-24T23:37:44;3.35;;;1.80;;
31594;SDS011;18200;48.726;8.892;2023-04-24T23:41:44;5.32;;;2.00;;
31594;SDS011;18200;48.726;8.892;2023-04-24T23:45:45;5.75;;;2.58;;
31594;SDS011;18200;48.726;8.892;2023-04-24T23:49:45;3.05;;;1.92;;
31594;SDS011;18200;48.726;8.892;2023-04-24T23:53:45;5.18;;;2.20;;
31594;SDS011;18200;48.726;8.892;2023-04-24T23:57:46;4.30;;;2.53;;
